Chicago, Illinois
Traffic Map
Current Weather Conditions
Chicago, Illinois
Broken Clouds
Broken Clouds
38°
Feels Like: 30°
Wind Chill: 30° Ceiling: 19000
Heat Index: 38° Visibility: 10mi
Dew Point: 26° Wind: 13mph
Humidity: 62% Direction: 250° (WSW)
Pressure: 30.21in Gusts: 0mph
Raw Report DataKMDW 061831Z 25011KT 10SM SCT027 BKN190 03/M03 A3021 RMK AO2 SCT V BKN T00331033
Traffic Incident Summary
Active as of:
Severity:
Category:
InformationThere was an issue retrieving the traffic information for this location. Please try a different location or try again shortly.
Advertisements
Track Severe Weather on mobile